createdAt,value
2023-04-20T00:01:28.730Z,66.40
2023-04-20T00:03:57.663Z,66.33
2023-04-20T00:06:29.954Z,66.34
2023-04-20T00:08:58.653Z,66.40
2023-04-20T00:11:31.201Z,66.35
2023-04-20T00:13:59.955Z,66.33
2023-04-20T00:16:28.735Z,66.33
2023-04-20T00:18:58.099Z,66.55
2023-04-20T00:21:27.501Z,66.45
2023-04-20T00:23:55.984Z,66.68
2023-04-20T00:26:24.694Z,66.71
2023-04-20T00:28:54.732Z,66.77
2023-04-20T00:31:23.222Z,66.95
2023-04-20T00:33:51.859Z,66.74
2023-04-20T00:36:21.055Z,66.79
2023-04-20T00:38:50.403Z,66.80
2023-04-20T00:41:19.832Z,66.93
2023-04-20T00:43:54.804Z,67.00
2023-04-20T00:46:23.808Z,67.14
2023-04-20T00:48:54.043Z,67.00
2023-04-20T00:51:23.974Z,67.12
2023-04-20T00:53:52.996Z,66.91
2023-04-20T00:56:21.741Z,67.10
2023-04-20T00:58:50.617Z,67.03
2023-04-20T01:01:20.326Z,67.24
2023-04-20T01:03:49.340Z,67.13
2023-04-20T01:06:18.228Z,66.96
2023-04-20T01:08:51.353Z,67.14
2023-04-20T01:11:20.418Z,67.27
2023-04-20T01:13:50.191Z,67.03
2023-04-20T01:16:19.032Z,67.28
2023-04-20T01:18:49.108Z,67.28
2023-04-20T01:21:21.979Z,67.29
2023-04-20T01:23:50.888Z,67.12
2023-04-20T01:26:21.109Z,67.18
2023-04-20T01:28:52.975Z,67.31
2023-04-20T01:31:22.113Z,67.27
2023-04-20T01:33:52.864Z,67.36
2023-04-20T01:36:22.819Z,67.22
2023-04-20T01:38:51.696Z,67.34
2023-04-20T01:41:21.293Z,67.10
2023-04-20T01:43:50.824Z,67.54
2023-04-20T01:46:19.545Z,67.76
2023-04-20T01:48:49.020Z,67.35
2023-04-20T01:51:17.853Z,67.35
2023-04-20T01:53:46.517Z,67.48
2023-04-20T01:56:15.748Z,67.58
2023-04-20T01:58:44.376Z,67.57
2023-04-20T02:01:12.929Z,67.45
2023-04-20T02:03:42.005Z,67.74
2023-04-20T02:06:10.865Z,67.77
2023-04-20T02:08:39.725Z,67.85
2023-04-20T02:11:09.794Z,67.97
2023-04-20T02:13:39.010Z,67.87
2023-04-20T02:16:07.673Z,67.91
2023-04-20T02:18:36.236Z,68.07
2023-04-20T02:21:06.258Z,68.11
2023-04-20T02:23:34.696Z,68.08
2023-04-20T02:26:03.364Z,68.08
2023-04-20T02:28:32.199Z,68.08
2023-04-20T02:31:00.666Z,68.07
2023-04-20T02:33:29.470Z,68.00
2023-04-20T02:35:58.469Z,68.07
2023-04-20T02:38:27.521Z,67.77
2023-04-20T02:40:56.133Z,68.22
2023-04-20T02:43:25.299Z,67.97
2023-04-20T02:45:54.004Z,67.98
2023-04-20T02:48:23.762Z,68.09
2023-04-20T02:50:55.774Z,67.91
2023-04-20T02:53:26.121Z,67.98
2023-04-20T02:56:09.987Z,68.07
2023-04-20T02:58:45.620Z,68.19
2023-04-20T03:01:24.291Z,68.11
2023-04-20T03:04:00.951Z,68.40
2023-04-20T03:06:30.087Z,68.43
2023-04-20T03:08:59.082Z,68.40
2023-04-20T03:11:51.768Z,68.26
2023-04-20T03:14:31.588Z,68.37
2023-04-20T03:17:02.296Z,68.56
2023-04-20T03:19:30.829Z,68.31
2023-04-20T03:21:59.346Z,68.25
2023-04-20T03:24:29.028Z,68.30
2023-04-20T03:26:57.867Z,68.53
2023-04-20T03:29:38.277Z,68.30
2023-04-20T03:32:07.220Z,68.70
2023-04-20T03:34:36.312Z,68.65
2023-04-20T03:37:05.171Z,68.68
2023-04-20T03:39:33.955Z,68.80
2023-04-20T03:42:02.366Z,68.89
2023-04-20T03:44:31.343Z,68.95
2023-04-20T03:47:00.137Z,69.00
2023-04-20T03:49:30.314Z,68.74
2023-04-20T03:51:59.496Z,68.91
2023-04-20T03:54:28.836Z,68.84
2023-04-20T03:56:58.785Z,69.02
2023-04-20T03:59:28.784Z,69.11
2023-04-20T04:01:57.396Z,69.18
2023-04-20T04:04:26.696Z,69.11
2023-04-20T04:06:56.253Z,69.14
2023-04-20T04:09:26.946Z,68.92
2023-04-20T04:11:55.540Z,69.08
2023-04-20T04:14:25.209Z,69.16
2023-04-20T04:16:53.768Z,69.13
2023-04-20T04:19:22.986Z,68.92
2023-04-20T04:21:52.082Z,69.22
2023-04-20T04:24:21.781Z,69.19
2023-04-20T04:27:08.612Z,69.27
2023-04-20T04:29:42.060Z,69.39
2023-04-20T04:32:15.087Z,69.49
2023-04-20T04:34:46.463Z,69.55
2023-04-20T04:37:16.569Z,69.34
2023-04-20T04:39:51.405Z,69.42
2023-04-20T04:42:29.683Z,69.32
2023-04-20T04:45:02.217Z,69.41
2023-04-20T04:47:36.344Z,69.35
2023-04-20T04:50:06.293Z,69.09
2023-04-20T04:52:35.114Z,69.24
2023-04-20T04:55:08.476Z,69.34
2023-04-20T04:57:38.868Z,69.49
2023-04-20T05:00:12.974Z,69.58
2023-04-20T05:02:56.110Z,69.37
2023-04-20T05:05:25.931Z,69.54
2023-04-20T05:07:54.948Z,69.39
2023-04-20T05:10:23.378Z,69.58
2023-04-20T05:12:52.950Z,69.69
2023-04-20T05:15:21.889Z,69.59
2023-04-20T05:17:50.350Z,69.64
2023-04-20T05:20:19.579Z,69.41
2023-04-20T05:22:48.740Z,69.43
2023-04-20T05:25:17.329Z,69.45
2023-04-20T05:27:46.924Z,69.35
2023-04-20T05:30:21.382Z,69.42
2023-04-20T05:32:52.452Z,69.52
2023-04-20T05:35:22.659Z,69.77
2023-04-20T05:37:51.065Z,69.53
2023-04-20T05:40:20.278Z,69.55
2023-04-20T05:42:48.878Z,69.58
2023-04-20T05:45:17.470Z,69.62
2023-04-20T05:47:59.130Z,69.78
2023-04-20T05:50:27.988Z,69.64
2023-04-20T05:52:56.416Z,69.75
2023-04-20T05:55:25.411Z,69.59
2023-04-20T05:57:54.015Z,69.62
2023-04-20T06:00:25.775Z,69.25
2023-04-20T06:02:56.040Z,69.55
2023-04-20T06:05:24.773Z,69.54
2023-04-20T06:07:53.420Z,69.43
2023-04-20T06:10:22.879Z,69.50
2023-04-20T06:12:51.638Z,69.49
2023-04-20T06:15:20.106Z,69.82
2023-04-20T06:17:49.730Z,69.65
2023-04-20T06:20:18.309Z,69.75
2023-04-20T06:22:47.307Z,69.78
2023-04-20T06:25:16.632Z,69.58
2023-04-20T06:27:45.074Z,69.63
2023-04-20T06:30:14.184Z,69.64
2023-04-20T06:32:43.322Z,69.78
2023-04-20T06:35:11.819Z,69.83
2023-04-20T06:37:41.030Z,69.84
2023-04-20T06:40:10.558Z,69.74
2023-04-20T06:42:39.025Z,69.72
2023-04-20T06:45:08.306Z,69.71
2023-04-20T06:47:38.048Z,69.66
2023-04-20T06:50:10.053Z,69.85
2023-04-20T06:52:41.101Z,69.70
2023-04-20T06:55:10.146Z,69.75
2023-04-20T06:57:44.149Z,69.81
2023-04-20T07:00:13.739Z,69.74
2023-04-20T07:02:52.126Z,69.51
2023-04-20T07:05:21.520Z,69.51
2023-04-20T07:07:50.172Z,69.70
2023-04-20T07:10:19.095Z,69.79
2023-04-20T07:12:48.700Z,69.83
2023-04-20T07:15:17.255Z,69.89
2023-04-20T07:17:46.016Z,69.90
2023-04-20T07:20:15.263Z,69.92
2023-04-20T07:22:43.773Z,69.79
2023-04-20T07:25:12.403Z,69.86
2023-04-20T07:27:41.859Z,69.78
2023-04-20T07:30:11.111Z,69.87
2023-04-20T07:32:41.723Z,69.95
2023-04-20T07:35:11.268Z,69.73
2023-04-20T07:37:40.617Z,69.78
2023-04-20T07:40:11.118Z,70.01
2023-04-20T07:42:40.209Z,70.06
2023-04-20T07:45:10.683Z,69.92
2023-04-20T07:47:39.959Z,69.91
2023-04-20T07:50:09.093Z,70.06
2023-04-20T07:52:37.843Z,69.91
2023-04-20T07:55:08.578Z,69.98
2023-04-20T07:57:37.276Z,70.01
2023-04-20T08:00:07.543Z,70.10
2023-04-20T08:02:42.172Z,70.21
2023-04-20T08:05:11.762Z,70.33
2023-04-20T08:07:40.973Z,70.19
2023-04-20T08:10:11.095Z,70.26
2023-04-20T08:12:40.708Z,70.13
2023-04-20T08:15:10.424Z,70.15
2023-04-20T08:17:39.558Z,70.29
2023-04-20T08:20:10.874Z,70.34
2023-04-20T08:22:41.432Z,70.55
2023-04-20T08:25:10.050Z,70.33
2023-04-20T08:27:38.682Z,70.20
2023-04-20T08:30:08.400Z,70.43
2023-04-20T08:32:36.974Z,70.27
2023-04-20T08:35:05.828Z,70.46
2023-04-20T08:37:35.154Z,70.47
2023-04-20T08:40:05.933Z,70.47
2023-04-20T08:42:34.490Z,70.53
2023-04-20T08:45:03.614Z,70.50
2023-04-20T08:47:34.314Z,70.45
2023-04-20T08:50:19.196Z,70.48
2023-04-20T08:52:51.787Z,70.32
2023-04-20T08:55:20.880Z,70.64
2023-04-20T08:57:52.084Z,70.63
2023-04-20T09:00:21.621Z,70.63
2023-04-20T09:02:52.190Z,70.58
2023-04-20T09:05:32.051Z,70.75
2023-04-20T09:08:02.423Z,70.77
2023-04-20T09:10:40.160Z,70.67
2023-04-20T09:13:10.126Z,70.69
2023-04-20T09:15:39.323Z,70.77
2023-04-20T09:18:14.590Z,70.66
2023-04-20T09:20:43.523Z,70.67
2023-04-20T09:23:20.141Z,70.77
2023-04-20T09:25:53.328Z,70.97
2023-04-20T09:28:22.499Z,70.92
2023-04-20T09:30:51.920Z,70.90
2023-04-20T09:33:20.567Z,70.94
2023-04-20T09:35:51.394Z,70.78
2023-04-20T09:38:27.488Z,70.84
2023-04-20T09:40:56.912Z,70.64
2023-04-20T09:43:28.704Z,70.95
2023-04-20T09:45:57.974Z,70.86
2023-04-20T09:48:26.587Z,70.81
2023-04-20T09:50:56.380Z,70.99
2023-04-20T09:53:26.956Z,70.91
2023-04-20T09:55:56.370Z,71.05
2023-04-20T09:58:24.889Z,70.90
2023-04-20T10:00:54.045Z,70.84
2023-04-20T10:03:23.328Z,70.86
2023-04-20T10:05:56.107Z,70.91
2023-04-20T10:08:25.113Z,70.87
2023-04-20T10:10:53.590Z,70.99
2023-04-20T10:13:34.381Z,70.98
2023-04-20T10:16:03.293Z,70.98
2023-04-20T10:18:36.235Z,70.85
2023-04-20T10:21:11.719Z,70.64
2023-04-20T10:23:51.175Z,70.73
2023-04-20T10:26:20.176Z,70.80
2023-04-20T10:28:49.136Z,70.68
2023-04-20T10:31:27.741Z,70.58
2023-04-20T10:34:03.324Z,70.55
2023-04-20T10:36:36.979Z,70.71
2023-04-20T10:39:20.069Z,70.85
2023-04-20T10:41:58.978Z,70.85
2023-04-20T10:44:28.156Z,70.82
2023-04-20T10:46:57.465Z,70.77
2023-04-20T10:49:30.629Z,70.80
2023-04-20T10:51:59.449Z,70.78
2023-04-20T10:54:38.041Z,70.76
2023-04-20T10:57:07.563Z,70.83
2023-04-20T10:59:37.872Z,70.61
2023-04-20T11:02:11.496Z,70.47
2023-04-20T11:04:40.938Z,70.58
2023-04-20T11:07:13.676Z,70.47
2023-04-20T11:09:43.542Z,70.31
2023-04-20T11:12:16.505Z,70.61
2023-04-20T11:14:55.269Z,70.54
2023-04-20T11:17:34.751Z,70.36
2023-04-20T11:20:12.629Z,70.10
2023-04-20T11:22:43.427Z,70.22
2023-04-20T11:28:23.786Z,70.08
2023-04-20T11:35:21.324Z,70.23
2023-04-20T11:38:20.253Z,69.80
2023-04-20T11:41:24.387Z,69.93
2023-04-20T11:44:52.360Z,69.67
2023-04-20T11:48:05.632Z,69.54
2023-04-20T11:51:11.340Z,69.40
2023-04-20T11:57:06.756Z,68.85
2023-04-20T11:59:56.034Z,69.06
2023-04-20T12:02:59.966Z,69.33
2023-04-20T12:05:50.632Z,68.87
2023-04-20T12:11:56.288Z,68.99
2023-04-20T12:18:51.209Z,68.71
2023-04-20T12:25:57.928Z,68.38
2023-04-20T12:29:10.026Z,68.45
2023-04-20T12:31:52.384Z,68.17
2023-04-20T12:34:42.830Z,68.23
2023-04-20T12:37:34.267Z,67.89
2023-04-20T12:43:27.151Z,67.43
2023-04-20T12:53:08.757Z,67.27
2023-04-20T12:56:12.299Z,67.08
2023-04-20T13:02:31.425Z,66.71
2023-04-20T13:05:50.345Z,66.82
2023-04-20T13:08:45.069Z,66.77
2023-04-20T13:11:43.051Z,66.44
2023-04-20T13:14:34.977Z,66.37
2023-04-20T13:20:34.314Z,66.54
2023-04-20T13:27:45.762Z,66.60
2023-04-20T13:34:29.005Z,66.56
2023-04-20T13:37:23.690Z,66.55
2023-04-20T13:43:19.463Z,66.46
2023-04-20T13:46:37.750Z,66.53
2023-04-20T13:49:39.597Z,66.27
2023-04-20T13:56:10.754Z,66.01
2023-04-20T14:02:27.047Z,65.78
2023-04-20T14:05:51.046Z,65.70
2023-04-20T14:09:00.584Z,65.33
2023-04-20T14:12:04.385Z,65.55
2023-04-20T14:15:30.299Z,65.56
2023-04-20T14:21:54.570Z,65.49
2023-04-20T14:25:03.316Z,65.34
2023-04-20T14:27:54.793Z,65.13
2023-04-20T14:31:11.552Z,65.20
2023-04-20T14:34:17.680Z,65.16
2023-04-20T14:40:35.797Z,65.33
2023-04-20T14:47:14.397Z,65.35
2023-04-20T14:53:57.441Z,65.20
2023-04-20T14:57:15.366Z,65.31
2023-04-20T15:00:08.869Z,65.22
2023-04-20T15:03:19.325Z,65.16
2023-04-20T15:13:34.991Z,65.32
2023-04-20T15:19:58.721Z,65.09
2023-04-20T15:23:39.740Z,65.21
2023-04-20T15:26:53.910Z,65.06
2023-04-20T15:36:50.382Z,64.95
2023-04-20T15:39:52.198Z,65.08
2023-04-20T15:46:17.148Z,64.81
2023-04-20T15:52:22.873Z,64.88
2023-04-20T15:55:37.820Z,64.95
2023-04-20T15:58:42.974Z,64.96
2023-04-20T16:02:23.633Z,64.87
2023-04-20T16:05:32.200Z,64.89
2023-04-20T16:09:00.950Z,64.82
2023-04-20T16:12:13.788Z,64.98
2023-04-20T16:15:52.334Z,64.93
2023-04-20T16:18:46.016Z,64.93
2023-04-20T16:22:06.961Z,64.89
2023-04-20T16:25:07.135Z,64.91
2023-04-20T16:28:16.570Z,65.03
2023-04-20T16:31:17.095Z,65.11
2023-04-20T16:37:51.316Z,65.09
2023-04-20T16:41:01.053Z,65.13
2023-04-20T16:44:01.432Z,65.01
2023-04-20T16:47:18.629Z,65.07
2023-04-20T16:50:27.279Z,65.44
2023-04-20T16:56:50.334Z,65.28
2023-04-20T16:59:58.351Z,65.49
2023-04-20T17:10:00.403Z,65.72
2023-04-20T17:13:49.184Z,65.79
2023-04-20T17:16:39.442Z,65.72
2023-04-20T17:19:30.115Z,65.66
2023-04-20T17:22:27.045Z,65.86
2023-04-20T17:28:42.457Z,65.83
2023-04-20T17:31:52.873Z,65.89
2023-04-20T17:38:33.421Z,65.99
2023-04-20T17:41:41.446Z,66.08
2023-04-20T17:44:49.985Z,66.15
2023-04-20T17:48:19.033Z,66.31
2023-04-20T17:51:24.201Z,66.38
2023-04-20T17:54:23.066Z,66.44
2023-04-20T17:57:34.753Z,66.36
2023-04-20T18:03:49.670Z,66.76
2023-04-20T18:07:04.317Z,66.99
2023-04-20T18:10:23.674Z,67.04
2023-04-20T18:13:46.654Z,66.87
2023-04-20T18:16:46.571Z,66.83
2023-04-20T18:19:58.499Z,66.98
2023-04-20T18:23:03.002Z,67.10
2023-04-20T18:26:13.288Z,67.37
2023-04-20T18:29:43.493Z,67.28
2023-04-20T18:32:50.191Z,67.19
2023-04-20T18:35:49.245Z,67.12
2023-04-20T18:42:16.749Z,67.31
2023-04-20T18:45:24.776Z,67.44
2023-04-20T18:48:44.982Z,67.38
2023-04-20T18:52:03.503Z,67.35
2023-04-20T18:55:25.158Z,67.48
2023-04-20T18:58:03.544Z,67.63
2023-04-20T19:04:21.329Z,67.80
2023-04-20T19:07:25.143Z,67.79
2023-04-20T19:10:39.387Z,67.96
2023-04-20T19:16:52.965Z,68.04
2023-04-20T19:23:09.356Z,68.18
2023-04-20T19:26:23.061Z,68.22
2023-04-20T19:29:24.124Z,68.25
2023-04-20T19:32:19.344Z,68.33
2023-04-20T19:35:11.814Z,68.43
2023-04-20T19:38:32.906Z,68.55
2023-04-20T19:41:19.794Z,68.61
2023-04-20T19:44:34.138Z,68.62
2023-04-20T19:47:37.978Z,68.52
2023-04-20T19:51:00.058Z,68.63
2023-04-20T19:53:55.323Z,68.81
2023-04-20T19:56:59.404Z,68.58
2023-04-20T19:59:58.499Z,68.18
2023-04-20T20:03:23.244Z,68.45
2023-04-20T20:06:32.511Z,68.64
2023-04-20T20:09:48.206Z,68.63
2023-04-20T20:12:54.650Z,68.65
2023-04-20T20:16:38.615Z,68.87
2023-04-20T20:19:37.151Z,68.93
2023-04-20T20:22:49.263Z,68.99
2023-04-20T20:25:50.867Z,68.95
2023-04-20T20:32:33.039Z,69.11
2023-04-20T20:35:37.405Z,69.14
2023-04-20T20:41:59.751Z,69.33
2023-04-20T20:45:02.838Z,69.38
2023-04-20T20:51:28.994Z,69.66
2023-04-20T20:54:51.919Z,69.67
2023-04-20T20:57:57.793Z,69.81
2023-04-20T21:04:48.652Z,69.61
2023-04-20T21:08:10.497Z,69.50
2023-04-20T21:11:25.293Z,69.61
2023-04-20T21:17:50.463Z,69.98
2023-04-20T21:21:29.006Z,69.85
2023-04-20T21:30:58.262Z,70.04
2023-04-20T21:33:44.541Z,70.16
2023-04-20T21:36:47.611Z,70.34
2023-04-20T21:43:38.031Z,70.34
2023-04-20T21:46:44.396Z,70.27
2023-04-20T21:50:08.337Z,70.41
2023-04-20T21:52:58.383Z,70.36
2023-04-20T21:56:15.489Z,70.39
2023-04-20T21:59:25.624Z,70.40
2023-04-20T22:02:42.412Z,70.52
2023-04-20T22:05:48.200Z,70.69
2023-04-20T22:08:51.702Z,70.44
2023-04-20T22:12:21.478Z,70.78
2023-04-20T22:15:34.098Z,70.97
2023-04-20T22:18:32.969Z,70.94
2023-04-20T22:21:41.491Z,70.89
2023-04-20T22:25:11.047Z,70.92
2023-04-20T22:31:32.696Z,71.01
2023-04-20T22:37:55.437Z,70.89
2023-04-20T22:41:11.864Z,70.94
2023-04-20T22:44:40.492Z,70.97
2023-04-20T22:47:47.754Z,71.19
2023-04-20T22:50:43.164Z,71.19
2023-04-20T22:54:10.664Z,71.16
2023-04-20T22:57:06.532Z,71.19
2023-04-20T23:00:31.601Z,71.21
2023-04-20T23:03:51.331Z,71.49
2023-04-20T23:07:11.188Z,71.45
2023-04-20T23:10:43.318Z,71.39
2023-04-20T23:17:34.866Z,71.45
2023-04-20T23:20:51.582Z,71.44
2023-04-20T23:24:05.380Z,71.35
2023-04-20T23:27:15.832Z,71.54
2023-04-20T23:30:14.788Z,71.48
2023-04-20T23:36:45.910Z,71.36
2023-04-20T23:40:08.279Z,71.27
2023-04-20T23:43:06.993Z,71.19
2023-04-20T23:46:15.681Z,71.42
2023-04-20T23:49:20.390Z,71.45
2023-04-20T23:52:21.510Z,71.64
2023-04-20T23:55:13.578Z,71.55
